• Join FlightAware (Why Join?)
  • Login
  • US Flag 
07:34PM EDT


 

Airport Tracker/Info


-or-


 

Live Flight TrackerFlight Track Log ✈ AAL1326 ✈ 14-Apr-2013 ✈ KORD - KFLL

Flight Track Log - Related Links

Times and Time Zones

All times are in EDT time to prevent confusion due to time zone crossing. See the AAL1326 flight status page for this flight to view local times or setup timezone preferences in your user account.

Time Position Orientation Groundspeed Altitude Reporting Facility
EDT Latitude Longitude Course Direction KTS MPH feet Rate Location/Type
07:13PM 41.9450 -87.9060 179° South 152 175 2,300  Level FlightAware
07:13PM 41.9340 -87.9070 184° South 166 191 2,800 1,860 Climbing FlightAware
07:13PM 41.9060 -87.9050 177° South 216 249 3,700 2,160 Climbing FlightAware
07:14PM 41.8810 -87.9040 178° South 230 265 4,800 2,280 Climbing FlightAware
07:14PM 41.8490 -87.9020 177° South 233 268 5,800 2,820 Climbing FlightAware
07:15PM 41.8200 -87.9000 177° South 235 270 7,400 3,600 Climbing FlightAware
07:15PM 41.7880 -87.8990 179° South 243 280 9,100 3,180 Climbing FlightAware
07:16PM 41.7720 -87.8980 177° South 249 287 9,800 2,400 Climbing FlightAware
07:16PM 41.7220 -87.8950 177° South 285 328 11,300 2,040 Climbing FlightAware
07:17PM 41.6630 -87.8920 178° South 323 372 12,700 2,580 Climbing FlightAware
07:18PM 41.5960 -87.8880 177° South 332 382 15,000 2,700 Climbing FlightAware
07:18PM 41.5430 -87.8850 178° South 351 404 16,300 2,220 Climbing FlightAware
07:19PM 41.4620 -87.8800 177° South 369 425 18,200 2,460 Climbing FlightAware
07:20PM 41.3640 -87.8820 181° South 381 438 20,400 2,280 Climbing FlightAware
07:21PM 41.2900 -87.8890 184° South 394 453 21,900 1,920 Climbing FlightAware
07:21PM 41.2070 -87.8920 182° South 409 471 23,300 1,980 Climbing FlightAware
07:22PM 41.1070 -87.8880 178° South 415 478 25,200 1,980 Climbing FlightAware
07:23PM 41.0250 -87.8860 179° South 425 489 26,300 1,500 Climbing FlightAware
07:24PM 40.9370 -87.8830 179° South 434 499 27,400 1,380 Climbing FlightAware
07:24PM 40.8570 -87.8810 179° South 442 509 28,300 1,380 Climbing FlightAware
07:25PM 40.7610 -87.8780 179° South 450 518 29,400 1,500 Climbing FlightAware
07:26PM 40.6830 -87.8750 178° South 446 513 30,500 1,800 Climbing FlightAware
07:26PM 40.6010 -87.8730 179° South 441 507 31,800 1,800 Climbing FlightAware
07:27PM 40.5060 -87.8700 179° South 437 503 33,100 1,560 Climbing FlightAware
07:28PM 40.4380 -87.8680 179° South 436 502 33,900 1,380 Climbing FlightAware
07:29PM 40.3470 -87.8650 179° South 434 499 35,000 1,620 Climbing FlightAware
07:29PM 40.2620 -87.8620 178° South 423 487 36,200 1,560 Climbing FlightAware
07:30PM 40.1740 -87.8580 178° South 412 474 37,400 1,380 Climbing FlightAware
07:31PM 40.1160 -87.8550 178° South 406 467 38,100 1,080 Climbing FlightAware
07:31PM 40.0380 -87.8520 178° South 400 460 38,800 540 Climbing FlightAware
07:32PM 39.9390 -87.8480 178° South 406 467 39,000 120 Climbing FlightAware
07:33PM 39.8760 -87.8450 178° South 406 467 39,000  Level FlightAware
07:34PM 39.7810 -87.8410 178° South 406 467 39,000  Level FlightAware
07:34PM 39.7020 -87.8380 178° South 407 468 39,000  Level FlightAware
07:35PM 39.6260 -87.8350 178° South 407 468 39,000  Level FlightAware
07:36PM 39.5380 -87.8310 178° South 407 468 39,000  Level FlightAware
07:36PM 39.4630 -87.8270 178° South 407 468 39,000  Level FlightAware
07:37PM 39.3920 -87.8240 178° South 407 468 39,000  Level FlightAware
07:38PM 39.3140 -87.8200 178° South 407 468 39,000  Level FlightAware
07:38PM 39.2300 -87.8170 178° South 408 470 39,000  Level FlightAware
07:39PM 39.1460 -87.8140 178° South 407 468 39,000  Level FlightAware
07:40PM 39.0710 -87.8100 178° South 408 470 39,000  Level FlightAware
07:40PM 38.9920 -87.8070 178° South 410 472 39,000  Level FlightAware
07:41PM 38.9090 -87.8040 178° South 411 473 39,000  Level FlightAware
07:42PM 38.8310 -87.8000 178° South 412 474 39,000  Level FlightAware
07:43PM 38.7450 -87.7970 178° South 412 474 39,000  Level FlightAware
07:43PM 38.6690 -87.7930 178° South 409 471 39,000  Level FlightAware
07:44PM 38.5940 -87.7750 169° South 422 486 39,000  Level FlightAware
07:45PM 38.5120 -87.7370 160° South 424 488 39,000  Level FlightAware
07:45PM 38.4400 -87.7040 160° South 422 486 39,000  Level FlightAware
07:46PM 38.3540 -87.6650 160° South 422 486 39,000  Level FlightAware
07:47PM 38.2800 -87.6290 159° South 427 491 39,000  Level FlightAware
07:47PM 38.2120 -87.5790 150° Southeast 432 497 39,000  Level FlightAware
07:48PM 38.1360 -87.5230 150° Southeast 432 497 39,000  Level FlightAware
07:49PM 38.0670 -87.4720 150° Southeast 432 497 39,000  Level FlightAware
07:50PM 37.9980 -87.4210 150° Southeast 431 496 39,000  Level FlightAware
07:50PM 37.9210 -87.3660 151° Southeast 429 494 39,000  Level FlightAware
07:51PM 37.8530 -87.3160 150° Southeast 425 489 39,000  Level FlightAware
07:52PM 37.7750 -87.2600 150° Southeast 424 488 39,000  Level FlightAware
07:52PM 37.7070 -87.2110 150° Southeast 421 484 39,000  Level FlightAware
07:53PM 37.6390 -87.1610 150° Southeast 420 483 39,000  Level FlightAware
07:54PM 37.5610 -87.1060 151° Southeast 424 488 39,000  Level FlightAware
07:54PM 37.4930 -87.0570 150° Southeast 423 487 39,000  Level FlightAware
07:55PM 37.4250 -87.0070 150° Southeast 425 489 39,000  Level FlightAware
07:56PM 37.3490 -86.9540 151° Southeast 424 488 39,000  Level FlightAware
07:57PM 37.2810 -86.9050 150° Southeast 425 489 39,000  Level FlightAware
07:57PM 37.2040 -86.8500 150° Southeast 425 489 39,000  Level FlightAware
07:58PM 37.1350 -86.8010 150° Southeast 426 490 39,000  Level FlightAware
07:59PM 37.0580 -86.7470 151° Southeast 426 490 39,000  Level FlightAware
07:59PM 36.9910 -86.6990 150° Southeast 427 491 39,000  Level FlightAware
08:00PM 36.9195 -86.6484 150° Southeast 428 493 39,000  Level FlightAware ADS-B
08:01PM 36.8679 -86.6121 151° Southeast 427 491 39,000  Level FlightAware ADS-B
08:01PM 36.8158 -86.5754 151° Southeast 426 490 39,000  Level FlightAware ADS-B
08:02PM 36.7643 -86.5392 151° Southeast 426 490 39,000  Level FlightAware ADS-B
08:02PM 36.7128 -86.5031 151° Southeast 424 488 39,000  Level FlightAware ADS-B
08:03PM 36.6320 -86.4460 150° Southeast 422 486 39,000  Level FlightAware
08:04PM 36.5620 -86.3980 151° Southeast 420 483 39,000  Level FlightAware
08:04PM 36.4985 -86.3533 150° Southeast 419 482 39,000  Level FlightAware ADS-B
08:05PM 36.4355 -86.3095 151° Southeast 417 480 39,000  Level FlightAware ADS-B
08:05PM 36.3847 -86.2743 151° Southeast 416 479 39,000  Level FlightAware ADS-B
08:06PM 36.3337 -86.2391 151° Southeast 417 480 39,000  Level FlightAware ADS-B
08:06PM 36.2760 -86.1990 151° Southeast 418 481 39,000  Level FlightAware
08:07PM 36.2303 -86.1675 151° Southeast 417 480 39,000  Level FlightAware ADS-B
08:07PM 36.1787 -86.1318 151° Southeast 423 487 39,000  Level FlightAware ADS-B
08:08PM 36.1265 -86.0958 151° Southeast 423 487 39,000  Level FlightAware ADS-B
08:08PM 36.0747 -86.0601 151° Southeast 423 487 39,000  Level FlightAware ADS-B
08:09PM 36.0223 -86.0242 151° Southeast 423 487 39,000  Level FlightAware ADS-B
08:09PM 35.9649 -85.9848 151° Southeast 424 488 39,000  Level FlightAware ADS-B
08:10PM 35.9054 -85.9441 151° Southeast 424 488 39,000  Level FlightAware ADS-B
08:10PM 35.8534 -85.9086 151° Southeast 423 487 39,000  Level FlightAware ADS-B
08:11PM 35.8012 -85.8730 151° Southeast 421 484 39,000  Level FlightAware ADS-B
08:11PM 35.7487 -85.8372 151° Southeast 421 484 39,000  Level FlightAware ADS-B
08:12PM 35.6876 -85.7956 151° Southeast 421 484 39,000  Level FlightAware ADS-B
08:13PM 35.6357 -85.7603 151° Southeast 421 484 39,000  Level FlightAware ADS-B
08:13PM 35.5840 -85.7251 151° Southeast 419 482 39,000  Level FlightAware ADS-B
08:14PM 35.5330 -85.6904 151° Southeast 413 475 39,000  Level FlightAware ADS-B
08:14PM 35.4824 -85.6563 151° Southeast 411 473 39,000  Level FlightAware ADS-B
08:15PM 35.4315 -85.6221 151° Southeast 411 473 39,000  Level FlightAware ADS-B
08:15PM 35.3738 -85.5832 151° Southeast 414 476 39,000  Level FlightAware ADS-B
08:16PM 35.3020 -85.5350 151° Southeast 418 481 39,000  Level FlightAware
08:16PM 35.2697 -85.5131 151° Southeast 418 481 39,000  Level FlightAware ADS-B
08:17PM 35.2418 -85.4967 154° Southeast 409 471 39,000  Level FlightAware ADS-B
08:17PM 35.2271 -85.4899 159° South 405 466 39,000  Level FlightAware ADS-B
08:17PM 35.2012 -85.4804 163° South 396 456 39,000  Level FlightAware ADS-B
08:17PM 35.1467 -85.4664 168° South 392 451 39,000  Level FlightAware ADS-B
08:18PM 35.0750 -85.4490 169° South 390 449 39,000  Level FlightAware
08:18PM 35.0541 -85.4435 168° South 392 451 39,000  Level FlightAware ADS-B
08:19PM 34.9975 -85.4292 168° South 388 447 39,000  Level FlightAware ADS-B
08:19PM 34.9433 -85.4156 168° South 386 444 39,000  Level FlightAware ADS-B
08:20PM 34.8907 -85.4026 169° South 385 443 39,000  Level FlightAware ADS-B
08:20PM 34.8381 -85.3893 168° South 385 443 39,000  Level FlightAware ADS-B
08:21PM 34.7855 -85.3762 168° South 384 442 39,000  Level FlightAware ADS-B
08:21PM 34.7272 -85.3617 168° South 384 442 39,000  Level FlightAware ADS-B
08:22PM 34.6733 -85.3484 169° South 385 443 39,000  Level FlightAware ADS-B
08:22PM 34.6182 -85.3348 169° South 387 445 39,000  Level FlightAware ADS-B
08:23PM 34.5700 -85.3230 169° South 382 440 39,000  Level FlightAware
08:24PM 34.5030 -85.3060 168° South 392 451 39,000  Level FlightAware
08:24PM 34.4180 -85.2850 168° South 397 457 39,000  Level FlightAware
08:25PM 34.3400 -85.2660 169° South 395 455 39,000  Level FlightAware
08:26PM 34.2760 -85.2500 168° South 396 456 39,000  Level FlightAware
08:26PM 34.1880 -85.2290 169° South 396 456 39,000  Level FlightAware
08:27PM 34.1027 -85.2079 168° South 403 464 39,000  Level FlightAware ADS-B
08:28PM 34.0194 -85.1874 168° South 403 464 39,000  Level FlightAware ADS-B
08:28PM 33.9634 -85.1736 168° South 401 461 39,000  Level FlightAware ADS-B
08:29PM 33.9077 -85.1601 169° South 399 459 39,000  Level FlightAware ADS-B
08:29PM 33.8524 -85.1468 169° South 398 458 39,000  Level FlightAware ADS-B
08:30PM 33.8040 -85.1350 169° South 396 456 39,000  Level FlightAware
08:31PM 33.7010 -85.1100 169° South 397 457 39,000  Level FlightAware
08:31PM 33.6380 -85.0950 169° South 393 452 39,000  Level FlightAware
08:32PM 33.5470 -85.0730 169° South 394 453 39,000  Level FlightAware
08:33PM 33.4700 -85.0540 168° South 396 456 39,000  Level FlightAware
08:34PM 33.4010 -85.0380 169° South 393 452 39,000  Level FlightAware
08:34PM 33.3200 -85.0180 168° South 391 450 39,000  Level FlightAware
08:35PM 33.2560 -85.0030 169° South 390 449 39,000  Level FlightAware
08:35PM 33.2297 -84.9963 168° South 391 450 39,000  Level FlightAware ADS-B
08:36PM 33.1720 -84.9830 169° South 393 452 39,000  Level FlightAware
08:37PM 33.0911 -84.9630 168° South 394 453 39,000  Level FlightAware ADS-B
08:37PM 33.0260 -84.9470 168° South 397 457 39,000  Level FlightAware
08:38PM 32.9610 -84.9320 169° South 408 470 39,000  Level FlightAware
08:39PM 32.8480 -84.9060 169° South 411 473 39,000  Level FlightAware
08:39PM 32.7810 -84.8890 168° South 412 474 39,000  Level FlightAware
08:40PM 32.7030 -84.8700 168° South 407 468 39,000  Level FlightAware
08:41PM 32.6100 -84.8490 169° South 408 470 39,000  Level FlightAware
08:42PM 32.5340 -84.8310 169° South 411 473 39,000  Level FlightAware
08:43PM 32.4200 -84.8040 169° South 423 487 39,000  Level FlightAware
08:43PM 32.3570 -84.7880 168° South 423 487 39,000  Level FlightAware
08:44PM 32.2450 -84.7630 169° South 423 487 39,000  Level FlightAware
08:45PM 32.1660 -84.7430 168° South 423 487 39,000  Level FlightAware
08:46PM 32.1010 -84.7270 168° South 423 487 39,000  Level FlightAware
08:46PM 32.0100 -84.7080 170° South 427 491 39,000  Level FlightAware
08:47PM 31.8630 -84.6730 169° South 428 493 39,000  Level FlightAware
08:48PM 31.7970 -84.6560 168° South 428 493 39,000  Level FlightAware
08:49PM 31.7310 -84.6400 168° South 428 493 39,000  Level FlightAware
08:49PM 31.6650 -84.6230 168° South 428 493 39,000  Level FlightAware
08:50PM 31.5990 -84.6070 168° South 428 493 39,000  Level FlightAware
08:51PM 31.5170 -84.5860 168° South 428 493 39,000  Level FlightAware
08:52PM 31.4510 -84.5700 168° South 428 493 39,000  Level FlightAware
08:52PM 31.3850 -84.5530 168° South 428 493 39,000  Level FlightAware
08:53PM 31.3030 -84.5330 168° South 428 493 39,000  Level FlightAware
08:54PM 31.2370 -84.5170 168° South 428 493 39,000  Level FlightAware
08:54PM 31.1710 -84.5000 168° South 428 493 39,000  Level FlightAware
08:55PM 30.9850 -84.3810 151° Southeast 39,000  Level FlightAware
08:56PM 30.9000 -84.3270 151° Southeast 451 519 39,000  Level FlightAware
08:57PM 30.8170 -84.2740 151° Southeast 450 518 39,000  Level FlightAware
08:57PM 30.7370 -84.2240 152° Southeast 454 522 39,000  Level FlightAware
08:58PM 30.6630 -84.1760 151° Southeast 454 522 39,000  Level FlightAware
08:59PM 30.5860 -84.1280 152° Southeast 454 522 39,000  Level FlightAware
08:59PM 30.5100 -84.0790 151° Southeast 455 524 39,000  Level FlightAware
09:00PM 30.4340 -84.0320 152° Southeast 455 524 39,000  Level FlightAware
09:01PM 30.3540 -83.9810 151° Southeast 455 524 39,000  Level FlightAware
09:01PM 30.2800 -83.9350 152° Southeast 456 525 39,000  Level FlightAware
09:03PM 30.2170 -83.8940 151° Southeast 459 528 39,000  Level FlightAware
09:03PM 30.0570 -83.7940 152° Southeast 455 524 39,000  Level FlightAware
09:04PM 29.9540 -83.7300 152° Southeast 457 526 39,000  Level FlightAware
09:05PM 29.8780 -83.6830 152° Southeast 459 528 39,000  Level FlightAware
09:06PM 29.7940 -83.6310 152° Southeast 463 533 39,000  Level FlightAware
09:06PM 29.7340 -83.5930 151° Southeast 472 543 39,000  Level FlightAware
09:07PM 29.6400 -83.5350 152° Southeast 474 545 39,000  Level FlightAware
09:08PM 29.5510 -83.4800 152° Southeast 476 548 39,000  Level FlightAware
09:08PM 29.4720 -83.4310 152° Southeast 478 550 39,000  Level FlightAware
09:09PM 29.3850 -83.3770 152° Southeast 473 544 39,000  Level FlightAware
09:10PM 29.3150 -83.3340 152° Southeast 474 545 39,000  Level FlightAware
09:11PM 29.2190 -83.2750 152° Southeast 476 548 39,000  Level FlightAware
09:12PM 29.1130 -83.2100 152° Southeast 472 543 39,000  Level FlightAware
09:12PM 29.0350 -83.1620 152° Southeast 461 531 39,000  Level FlightAware
09:13PM 28.9500 -83.1100 152° Southeast 460 529 39,000  Level FlightAware
09:13PM 28.8920 -83.0750 152° Southeast 459 528 39,000  Level FlightAware
09:15PM 28.7180 -82.9690 152° Southeast 458 527 39,000  Level FlightAware
09:16PM 28.6140 -82.9060 152° Southeast 456 525 39,000  Level FlightAware
09:17PM 28.4530 -82.8090 152° Southeast 455 524 39,000  Level FlightAware
09:19PM 28.3200 -82.7290 152° Southeast 455 524 39,000  Level FlightAware
09:20PM 28.1890 -82.6500 152° Southeast 457 526 39,000  Level FlightAware
09:21PM 28.0540 -82.5690 152° Southeast 458 527 39,000  Level FlightAware
09:22PM 27.9200 -82.4980 155° Southeast 439 505 39,000 -120 Level FlightAware
09:23PM 27.7840 -82.4480 162° South 439 505 38,800 -600 Descending FlightAware
09:24PM 27.6440 -82.3960 162° South 453 521 37,700 -1,020 Descending FlightAware
09:25PM 27.5540 -82.3630 162° South 456 525 37,000 -1,080 Descending FlightAware
09:26PM 27.4740 -82.3340 162° South 454 522 36,300 -1,020 Descending FlightAware
09:26PM 27.3860 -82.3010 162° South 454 522 35,600 -960 Descending FlightAware
09:27PM 27.3060 -82.2720 162° South 454 522 35,000 -960 Descending FlightAware
09:28PM 27.2160 -82.2400 162° South 466 536 34,300 -1,020 Descending FlightAware
09:29PM 27.1300 -82.2080 162° South 471 542 33,600 -900 Descending FlightAware
09:29PM 27.0610 -82.1830 162° South 472 543 33,100 -1,680 Descending FlightAware
09:30PM 26.9550 -82.1450 162° South 470 541 31,300 -2,520 Descending FlightAware
09:31PM 26.8770 -82.1160 162° South 463 533 29,600 -2,400 Descending FlightAware
09:31PM 26.7970 -82.0500 144° Southeast 487 560 27,900 -2,340 Descending FlightAware
09:32PM 26.7450 -81.9680 125° Southeast 484 557 26,300 -2,340 Descending FlightAware
09:33PM 26.6880 -81.8790 126° Southeast 465 535 24,600 -2,280 Descending FlightAware
09:33PM 26.6390 -81.8000 125° Southeast 454 522 23,100 -2,280 Descending FlightAware
09:34PM 26.5900 -81.7240 126° Southeast 448 516 21,600 -2,220 Descending FlightAware
09:35PM 26.5430 -81.6500 125° Southeast 429 494 20,200 -2,160 Descending FlightAware
09:36PM 26.4910 -81.5690 126° Southeast 415 478 18,600 -2,100 Descending FlightAware
09:36PM 26.4420 -81.4920 125° Southeast 394 453 17,100 -2,100 Descending FlightAware
09:37PM 26.4000 -81.4260 125° Southeast 385 443 15,700 -2,040 Descending FlightAware
09:38PM 26.3600 -81.3640 126° Southeast 368 423 14,400 -1,980 Descending FlightAware
09:38PM 26.3150 -81.2940 126° Southeast 362 417 12,900 -1,980 Descending FlightAware
09:39PM 26.2760 -81.2330 125° Southeast 348 400 11,600 -1,740 Descending FlightAware
09:40PM 26.2390 -81.1750 125° Southeast 337 388 10,600 -1,020 Descending FlightAware
09:40PM 26.1990 -81.1140 126° Southeast 303 349 10,200 -660 Descending FlightAware
09:41PM 26.1760 -81.0780 125° Southeast 281 323 9,800 -1,320 Descending FlightAware
09:41PM 26.1560 -81.0470 126° Southeast 286 329 9,000 -1,560 Descending FlightAware
09:42PM 26.1330 -81.0120 126° Southeast 282 325 8,400 -1,140 Descending FlightAware
09:42PM 26.1140 -80.9820 125° Southeast 279 321 8,000 -600 Descending FlightAware
09:43PM 26.1060 -80.9610 113° Southeast 281 323 8,000  Level FlightAware
09:43PM 26.1020 -80.9190 96° East 282 325 8,000  Level FlightAware
09:43PM 26.1000 -80.8820 93° East 280 322 8,000 -360 Level FlightAware
09:44PM 26.0990 -80.8390 91° East 281 323 7,700 -840 Descending FlightAware
09:44PM 26.0970 -80.7960 93° East 282 325 7,200 -1,140 Descending FlightAware
09:45PM 26.0960 -80.7600 92° East 279 321 6,700 -1,320 Descending FlightAware
09:45PM 26.0940 -80.7160 93° East 273 314 6,000 -1,200 Descending FlightAware
09:46PM 26.0930 -80.6830 92° East 268 308 5,600 -1,020 Descending FlightAware
09:46PM 26.0920 -80.6410 92° East 264 304 5,100 -600 Descending FlightAware
09:47PM 26.0900 -80.6010 93° East 262 302 5,000 -120 Descending FlightAware
09:47PM 26.0890 -80.5680 92° East 260 299 5,000  Level FlightAware
09:48PM 26.0870 -80.5280 93° East 242 278 5,000 -240 Level FlightAware
09:48PM 26.0860 -80.4990 92° East 227 261 4,800 -1,020 Descending FlightAware
09:49PM 26.0850 -80.4630 92° East 226 260 4,100 -1,320 Descending FlightAware
09:49PM 26.0840 -80.4260 92° East 217 250 3,500 -1,320 Descending FlightAware
09:50PM 26.0820 -80.3820 93° East 211 243 2,600 -840 Descending FlightAware
09:51PM 26.0790 -80.3150 93° East 172 198 2,000 -480 Descending FlightAware
09:52PM 26.0770 -80.2560 92° East 152 175 1,500 -600 Descending FlightAware
09:54PM 26.0770 -80.1840 90° East 145 167 300 -600 Descending FlightAware
09:54PM 26.0770 -80.1630 90° East 145 167 200 -240 Descending FlightAware